createdAt,value
2022-08-25T00:00:40.744Z,0.00
2022-08-25T00:01:40.774Z,0.00
2022-08-25T00:02:40.847Z,0.00
2022-08-25T00:03:40.816Z,0.00
2022-08-25T00:04:40.853Z,0.00
2022-08-25T00:05:40.888Z,0.00
2022-08-25T00:06:40.833Z,0.00
2022-08-25T00:07:40.858Z,0.00
2022-08-25T00:08:40.892Z,0.00
2022-08-25T00:09:40.895Z,0.00
2022-08-25T00:10:40.906Z,0.00
2022-08-25T00:11:40.919Z,0.00
2022-08-25T00:12:40.899Z,0.00
2022-08-25T00:13:40.913Z,0.00
2022-08-25T00:14:40.928Z,0.00
2022-08-25T00:15:40.955Z,0.00
2022-08-25T00:16:40.930Z,0.00
2022-08-25T00:17:40.941Z,0.00
2022-08-25T00:18:40.976Z,0.00
2022-08-25T00:19:40.994Z,0.00
2022-08-25T00:20:41.002Z,0.00
2022-08-25T00:21:41.027Z,0.00
2022-08-25T00:22:41.040Z,0.00
2022-08-25T00:23:41.065Z,0.00
2022-08-25T00:24:41.113Z,0.00
2022-08-25T00:25:41.102Z,0.00
2022-08-25T00:26:41.106Z,0.00
2022-08-25T00:27:41.112Z,0.00
2022-08-25T00:28:41.139Z,0.00
2022-08-25T00:29:41.144Z,0.00
2022-08-25T00:30:41.196Z,0.00
2022-08-25T00:31:41.236Z,0.00
2022-08-25T00:32:41.167Z,0.00
2022-08-25T00:33:41.191Z,0.00
2022-08-25T00:34:41.236Z,0.00
2022-08-25T00:35:41.202Z,0.00
2022-08-25T00:36:41.206Z,0.00
2022-08-25T00:37:41.201Z,0.00
2022-08-25T00:38:41.209Z,0.00
2022-08-25T00:39:41.236Z,0.00
2022-08-25T00:40:41.231Z,0.00
2022-08-25T00:41:41.231Z,0.00
2022-08-25T00:42:41.232Z,0.00
2022-08-25T00:43:41.253Z,0.00
2022-08-25T00:44:41.287Z,0.00
2022-08-25T00:45:41.262Z,0.00
2022-08-25T00:46:41.381Z,0.00
2022-08-25T00:47:41.278Z,0.00
2022-08-25T00:48:41.280Z,0.00
2022-08-25T00:49:41.306Z,0.00
2022-08-25T00:50:41.302Z,0.00
2022-08-25T00:51:41.362Z,0.00
2022-08-25T00:52:41.353Z,0.00
2022-08-25T00:53:41.378Z,0.00
2022-08-25T00:54:41.379Z,0.00
2022-08-25T00:55:41.375Z,0.00
2022-08-25T00:56:41.393Z,0.00
2022-08-25T00:57:41.393Z,0.00
2022-08-25T00:58:41.416Z,0.00
2022-08-25T00:59:41.421Z,0.00
2022-08-25T01:00:41.417Z,0.00
2022-08-25T01:01:41.521Z,0.00
2022-08-25T01:02:41.490Z,0.00
2022-08-25T01:03:41.474Z,0.00
2022-08-25T01:04:48.628Z,0.00
2022-08-25T01:05:41.527Z,0.00
2022-08-25T01:06:41.555Z,0.00
2022-08-25T01:07:41.584Z,0.00
2022-08-25T01:08:41.580Z,0.00
2022-08-25T01:09:41.615Z,0.00
2022-08-25T01:10:41.607Z,0.00
2022-08-25T01:11:41.637Z,0.00
2022-08-25T01:12:41.645Z,0.00
2022-08-25T01:13:41.685Z,0.00
2022-08-25T01:14:41.705Z,0.00
2022-08-25T01:15:41.774Z,0.00
2022-08-25T01:16:41.719Z,0.00
2022-08-25T01:17:41.731Z,0.00
2022-08-25T01:18:41.756Z,0.00
2022-08-25T01:19:41.799Z,0.00
2022-08-25T01:20:41.781Z,0.00
2022-08-25T01:21:41.802Z,0.00
2022-08-25T01:22:41.800Z,0.00
2022-08-25T01:23:41.837Z,0.00
2022-08-25T01:24:41.859Z,0.00
2022-08-25T01:25:41.873Z,0.00
2022-08-25T01:26:41.853Z,0.00
2022-08-25T01:27:41.876Z,0.00
2022-08-25T01:28:41.885Z,0.00
2022-08-25T01:29:41.904Z,0.00
2022-08-25T01:30:41.992Z,0.00
2022-08-25T01:31:41.934Z,0.00
2022-08-25T01:32:41.951Z,0.00
2022-08-25T01:33:41.950Z,0.00
2022-08-25T01:34:41.946Z,0.00
2022-08-25T01:35:41.990Z,0.00
2022-08-25T01:36:41.967Z,0.00
2022-08-25T01:37:41.969Z,0.00
2022-08-25T01:38:41.993Z,0.00
2022-08-25T01:39:42.021Z,0.00
2022-08-25T01:40:42.056Z,0.00
2022-08-25T01:41:42.073Z,0.00
2022-08-25T01:42:42.108Z,0.00
2022-08-25T01:43:42.133Z,0.00
2022-08-25T01:44:42.170Z,0.00
2022-08-25T01:45:42.283Z,0.00
2022-08-25T01:46:42.220Z,0.00
2022-08-25T01:47:42.243Z,0.00
2022-08-25T01:48:42.259Z,0.00
2022-08-25T01:49:42.287Z,0.00
2022-08-25T01:50:42.318Z,0.00
2022-08-25T01:51:42.287Z,0.00
2022-08-25T01:52:42.308Z,0.00
2022-08-25T01:53:42.327Z,0.00
2022-08-25T01:54:42.352Z,0.00
2022-08-25T01:55:42.388Z,0.00
2022-08-25T01:56:42.413Z,0.00
2022-08-25T01:57:42.407Z,0.00
2022-08-25T01:58:42.379Z,0.00
2022-08-25T01:59:42.400Z,0.00
2022-08-25T02:00:42.430Z,0.00
2022-08-25T02:01:42.512Z,0.00
2022-08-25T02:02:42.797Z,0.00
2022-08-25T02:03:42.575Z,0.00
2022-08-25T02:04:44.548Z,0.00
2022-08-25T02:05:42.438Z,0.00
2022-08-25T02:06:42.453Z,0.00
2022-08-25T02:07:42.481Z,0.00
2022-08-25T02:08:42.503Z,0.00
2022-08-25T02:09:42.519Z,0.00
2022-08-25T02:10:42.556Z,0.00
2022-08-25T02:11:42.564Z,0.00
2022-08-25T02:12:42.568Z,0.00
2022-08-25T02:13:42.589Z,0.00
2022-08-25T02:14:42.569Z,0.00
2022-08-25T02:15:42.572Z,0.00
2022-08-25T02:16:42.647Z,0.00
2022-08-25T02:17:42.631Z,0.00
2022-08-25T02:18:42.639Z,0.00
2022-08-25T02:19:42.605Z,0.00
2022-08-25T02:20:42.612Z,0.00
2022-08-25T02:21:42.629Z,0.00
2022-08-25T02:22:43.477Z,0.00
2022-08-25T02:23:42.651Z,0.00
2022-08-25T02:24:42.642Z,0.00
2022-08-25T02:25:42.674Z,0.00
2022-08-25T02:26:42.686Z,0.00
2022-08-25T02:27:42.694Z,0.00
2022-08-25T02:28:42.732Z,0.00
2022-08-25T02:29:42.730Z,0.00
2022-08-25T02:30:42.843Z,0.00
2022-08-25T02:31:42.786Z,0.00
2022-08-25T02:32:42.806Z,0.00
2022-08-25T02:33:42.827Z,0.00
2022-08-25T02:34:42.865Z,0.00
2022-08-25T02:35:42.887Z,0.00
2022-08-25T02:36:42.910Z,0.00
2022-08-25T02:37:42.923Z,0.00
2022-08-25T02:38:42.962Z,0.00
2022-08-25T02:39:43.013Z,0.00
2022-08-25T02:40:42.988Z,0.00
2022-08-25T02:41:43.030Z,0.00
2022-08-25T02:42:43.030Z,0.00
2022-08-25T02:43:43.040Z,0.00
2022-08-25T02:44:43.037Z,0.00
2022-08-25T02:45:43.137Z,0.00
2022-08-25T02:46:43.068Z,0.00
2022-08-25T02:47:43.082Z,0.00
2022-08-25T02:48:43.087Z,0.00
2022-08-25T02:49:43.121Z,0.00
2022-08-25T02:50:43.087Z,0.00
2022-08-25T02:51:43.137Z,0.00
2022-08-25T02:52:43.142Z,0.00
2022-08-25T02:53:43.156Z,0.00
2022-08-25T02:54:43.185Z,0.00
2022-08-25T02:55:43.223Z,0.00
2022-08-25T02:56:43.211Z,0.00
2022-08-25T02:57:43.195Z,0.00
2022-08-25T02:58:43.231Z,0.00
2022-08-25T02:59:43.253Z,0.00
2022-08-25T03:00:43.346Z,0.00
2022-08-25T03:01:43.277Z,0.00
2022-08-25T03:02:43.307Z,0.00
2022-08-25T03:03:43.583Z,0.00
2022-08-25T03:04:43.420Z,0.00
2022-08-25T03:05:43.338Z,0.00
2022-08-25T03:06:43.370Z,0.00
2022-08-25T03:07:43.411Z,0.00
2022-08-25T03:08:43.428Z,0.00
2022-08-25T03:09:43.453Z,0.00
2022-08-25T03:10:43.448Z,0.00
2022-08-25T03:11:43.438Z,0.00
2022-08-25T03:12:43.438Z,0.00
2022-08-25T03:13:43.472Z,0.00
2022-08-25T03:14:43.502Z,0.00
2022-08-25T03:15:43.527Z,0.00
2022-08-25T03:16:46.369Z,0.00
2022-08-25T03:17:45.512Z,0.00
2022-08-25T03:18:43.546Z,0.00
2022-08-25T03:19:43.580Z,0.00
2022-08-25T03:20:43.572Z,0.00
2022-08-25T03:21:43.539Z,0.00
2022-08-25T03:22:43.560Z,0.00
2022-08-25T03:23:43.560Z,0.00
2022-08-25T03:24:43.564Z,0.00
2022-08-25T03:25:43.588Z,0.00
2022-08-25T03:26:43.594Z,0.00
2022-08-25T03:27:43.619Z,0.00
2022-08-25T03:28:43.647Z,0.00
2022-08-25T03:29:43.683Z,0.00
2022-08-25T03:30:43.708Z,0.00
2022-08-25T03:31:43.869Z,0.00
2022-08-25T03:32:43.725Z,0.00
2022-08-25T03:33:43.742Z,0.00
2022-08-25T03:34:43.770Z,0.00
2022-08-25T03:35:43.808Z,0.00
2022-08-25T03:36:43.824Z,0.00
2022-08-25T03:37:43.854Z,0.00
2022-08-25T03:38:43.879Z,0.00
2022-08-25T03:39:43.944Z,0.00
2022-08-25T03:40:43.947Z,0.00
2022-08-25T03:41:43.974Z,0.00
2022-08-25T03:42:45.130Z,0.00
2022-08-25T03:43:44.040Z,0.00
2022-08-25T03:44:44.063Z,0.00
2022-08-25T03:45:44.197Z,0.00
2022-08-25T03:46:44.060Z,0.00
2022-08-25T03:47:44.080Z,0.00
2022-08-25T03:48:44.106Z,0.00
2022-08-25T03:49:44.143Z,0.00
2022-08-25T03:50:44.145Z,0.00
2022-08-25T03:51:44.167Z,0.00
2022-08-25T03:52:44.175Z,0.00
2022-08-25T03:53:44.198Z,0.00
2022-08-25T03:54:44.227Z,0.00
2022-08-25T03:55:44.259Z,0.00
2022-08-25T03:56:44.286Z,0.00
2022-08-25T03:57:44.298Z,0.00
2022-08-25T03:58:44.296Z,1.00
2022-08-25T03:59:44.347Z,1.00
2022-08-25T04:00:44.381Z,1.00
2022-08-25T04:01:44.312Z,1.00
2022-08-25T04:02:44.377Z,1.00
2022-08-25T04:03:44.321Z,1.00
2022-08-25T04:04:44.972Z,2.00
2022-08-25T04:05:44.362Z,1.00
2022-08-25T04:06:44.379Z,2.00
2022-08-25T04:07:44.387Z,2.00
2022-08-25T04:08:44.420Z,2.00
2022-08-25T04:09:44.420Z,3.00
2022-08-25T04:10:44.449Z,3.00
2022-08-25T04:11:44.465Z,3.00
2022-08-25T04:12:44.493Z,3.00
2022-08-25T04:13:44.509Z,4.00
2022-08-25T04:14:44.534Z,5.00
2022-08-25T04:15:44.551Z,5.00
2022-08-25T04:16:44.624Z,5.00
2022-08-25T04:17:44.565Z,7.00
2022-08-25T04:18:44.594Z,7.00
2022-08-25T04:19:44.605Z,8.00
2022-08-25T04:20:46.920Z,9.00
2022-08-25T04:21:44.670Z,10.00
2022-08-25T04:22:45.182Z,11.00
2022-08-25T04:23:44.716Z,12.00
2022-08-25T04:24:44.745Z,14.00
2022-08-25T04:25:46.148Z,14.00
2022-08-25T04:26:44.781Z,16.00
2022-08-25T04:27:44.808Z,17.00
2022-08-25T04:28:44.806Z,18.00
2022-08-25T04:29:44.839Z,20.00
2022-08-25T04:30:47.165Z,22.00
2022-08-25T04:31:44.913Z,23.00
2022-08-25T04:32:44.887Z,25.00
2022-08-25T04:33:44.893Z,26.00
2022-08-25T04:34:44.911Z,28.00
2022-08-25T04:35:44.939Z,30.00
2022-08-25T04:36:44.968Z,31.00
2022-08-25T04:37:44.993Z,32.00
2022-08-25T04:38:45.005Z,34.00
2022-08-25T04:39:45.078Z,35.00
2022-08-25T04:40:45.006Z,38.00
2022-08-25T04:41:45.036Z,39.00
2022-08-25T04:42:45.019Z,41.00
2022-08-25T04:43:45.046Z,43.00
2022-08-25T04:44:45.039Z,44.00
2022-08-25T04:45:45.105Z,47.00
2022-08-25T04:46:45.057Z,49.00
2022-08-25T04:47:45.083Z,51.00
2022-08-25T04:48:45.110Z,53.00
2022-08-25T04:49:45.327Z,55.00
2022-08-25T04:50:45.108Z,57.00
2022-08-25T04:51:45.149Z,59.00
2022-08-25T04:52:45.133Z,60.00
2022-08-25T04:53:45.134Z,62.00
2022-08-25T04:54:45.170Z,64.00
2022-08-25T04:55:45.195Z,66.00
2022-08-25T04:56:45.173Z,68.00
2022-08-25T04:57:45.198Z,70.00
2022-08-25T04:58:45.225Z,73.00
2022-08-25T04:59:45.250Z,74.00
2022-08-25T05:02:11.220Z,80.00
2022-08-25T05:03:11.130Z,82.00
2022-08-25T05:04:14.723Z,85.00
2022-08-25T05:05:11.167Z,86.00
2022-08-25T05:06:15.707Z,89.00
2022-08-25T05:07:11.176Z,91.00
2022-08-25T05:08:11.172Z,94.00
2022-08-25T05:09:11.216Z,98.00
2022-08-25T05:10:11.224Z,102.00
2022-08-25T05:11:11.243Z,106.00
2022-08-25T05:12:11.308Z,110.00
2022-08-25T05:13:11.259Z,114.00
2022-08-25T05:14:11.313Z,118.00
2022-08-25T05:15:11.289Z,121.00
2022-08-25T05:16:11.565Z,128.00
2022-08-25T05:17:11.331Z,134.00
2022-08-25T05:18:11.338Z,135.00
2022-08-25T05:19:11.371Z,138.00
2022-08-25T05:20:11.399Z,141.00
2022-08-25T05:21:11.373Z,144.00
2022-08-25T05:22:11.417Z,147.00
2022-08-25T05:23:11.426Z,148.00
2022-08-25T05:24:11.468Z,148.00
2022-08-25T05:25:11.450Z,149.00
2022-08-25T05:26:11.483Z,154.00
2022-08-25T05:27:11.490Z,157.00
2022-08-25T05:28:11.516Z,160.00
2022-08-25T05:29:11.530Z,165.00
2022-08-25T05:30:11.550Z,169.00
2022-08-25T05:31:11.662Z,172.00
2022-08-25T05:32:11.582Z,174.00
2022-08-25T05:33:11.554Z,178.00
2022-08-25T05:34:11.560Z,181.00
2022-08-25T05:35:11.557Z,183.00
2022-08-25T05:36:11.576Z,184.00
2022-08-25T05:37:12.304Z,185.00
2022-08-25T05:38:15.384Z,188.00
2022-08-25T05:39:11.613Z,190.00
2022-08-25T05:40:11.716Z,192.00
2022-08-25T05:41:11.676Z,194.00
2022-08-25T05:42:11.704Z,197.00
2022-08-25T05:43:11.728Z,198.00
2022-08-25T05:44:11.756Z,198.00
2022-08-25T05:45:15.878Z,200.00
2022-08-25T05:46:11.814Z,202.00
2022-08-25T05:47:11.763Z,205.00
2022-08-25T05:48:11.789Z,208.00
2022-08-25T05:49:11.829Z,209.00
2022-08-25T05:50:11.808Z,211.00
2022-08-25T05:51:11.828Z,212.00
2022-08-25T05:52:14.299Z,213.00
2022-08-25T05:53:12.096Z,215.00
2022-08-25T05:54:12.130Z,216.00
2022-08-25T05:55:11.924Z,217.00
2022-08-25T05:56:11.915Z,219.00
2022-08-25T05:57:11.924Z,220.00
2022-08-25T05:58:12.134Z,221.00
2022-08-25T05:59:11.964Z,223.00
2022-08-25T06:00:11.973Z,225.00
2022-08-25T06:01:12.059Z,226.00
2022-08-25T06:02:12.079Z,228.00
2022-08-25T06:03:12.095Z,229.00
2022-08-25T06:04:12.027Z,230.00
2022-08-25T06:05:12.053Z,231.00
2022-08-25T06:06:12.031Z,230.00
2022-08-25T06:07:12.046Z,233.00
2022-08-25T06:08:12.111Z,228.00
2022-08-25T06:09:12.119Z,223.00
2022-08-25T06:10:12.140Z,231.00
2022-08-25T06:11:12.138Z,235.00
2022-08-25T06:12:12.160Z,237.00
2022-08-25T06:13:12.208Z,239.00
2022-08-25T06:14:12.219Z,241.00
2022-08-25T06:15:12.225Z,243.00
2022-08-25T06:16:12.280Z,244.00
2022-08-25T06:17:12.239Z,245.00
2022-08-25T06:18:12.265Z,246.00
2022-08-25T06:19:12.305Z,245.00
2022-08-25T06:20:12.304Z,241.00
2022-08-25T06:21:12.273Z,238.00
2022-08-25T06:22:12.309Z,243.00
2022-08-25T06:23:12.310Z,246.00
2022-08-25T06:24:15.551Z,248.00
2022-08-25T06:25:12.327Z,248.00
2022-08-25T06:26:13.141Z,244.00
2022-08-25T06:27:12.378Z,238.00
2022-08-25T06:28:12.403Z,236.00
2022-08-25T06:29:12.450Z,234.00
2022-08-25T06:30:12.428Z,235.00
2022-08-25T06:31:12.468Z,242.00
2022-08-25T06:32:12.472Z,236.00
2022-08-25T06:33:12.494Z,229.00
2022-08-25T06:34:12.546Z,237.00
2022-08-25T06:35:12.556Z,243.00
2022-08-25T06:36:12.527Z,245.00
2022-08-25T06:37:12.548Z,248.00
2022-08-25T06:38:12.812Z,250.00
2022-08-25T06:39:12.575Z,253.00
2022-08-25T06:40:12.728Z,254.00
2022-08-25T06:41:12.607Z,257.00
2022-08-25T06:42:12.624Z,257.00
2022-08-25T06:43:12.649Z,262.00
2022-08-25T06:44:12.679Z,265.00
2022-08-25T06:45:12.682Z,266.00
2022-08-25T06:46:12.686Z,269.00
2022-08-25T06:47:12.864Z,272.00
2022-08-25T06:48:12.694Z,276.00
2022-08-25T06:49:12.730Z,278.00
2022-08-25T06:50:12.754Z,280.00
2022-08-25T06:51:14.019Z,283.00
2022-08-25T06:52:12.797Z,285.00
2022-08-25T06:53:12.835Z,287.00
2022-08-25T06:54:12.904Z,289.00
2022-08-25T06:55:12.869Z,288.00
2022-08-25T06:56:12.890Z,286.00
2022-08-25T06:57:12.901Z,288.00
2022-08-25T06:58:12.931Z,292.00
2022-08-25T06:59:12.951Z,295.00
2022-08-25T07:00:12.946Z,297.00
2022-08-25T07:01:15.740Z,299.00
2022-08-25T07:02:12.991Z,301.00
2022-08-25T07:03:12.985Z,302.00
2022-08-25T07:04:13.465Z,305.00
2022-08-25T07:05:17.019Z,306.00
2022-08-25T07:06:13.011Z,308.00
2022-08-25T07:07:12.989Z,310.00
2022-08-25T07:08:12.984Z,311.00
2022-08-25T07:09:13.003Z,312.00
2022-08-25T07:10:13.046Z,314.00
2022-08-25T07:11:16.708Z,315.00
2022-08-25T07:12:13.059Z,316.00
2022-08-25T07:13:13.028Z,318.00
2022-08-25T07:14:13.036Z,320.00
2022-08-25T07:15:21.036Z,321.00
2022-08-25T07:16:13.156Z,321.00
2022-08-25T07:17:13.070Z,321.00
2022-08-25T07:18:13.080Z,322.00
2022-08-25T07:19:14.786Z,324.00
2022-08-25T07:20:13.678Z,324.00
2022-08-25T07:21:13.111Z,325.00
2022-08-25T07:22:13.138Z,323.00
2022-08-25T07:23:13.154Z,321.00
2022-08-25T07:24:13.160Z,324.00
2022-08-25T07:25:13.207Z,325.00
2022-08-25T07:26:27.105Z,327.00
2022-08-25T07:27:13.247Z,328.00
2022-08-25T07:28:13.275Z,329.00
2022-08-25T07:29:13.292Z,332.00
2022-08-25T07:30:13.325Z,333.00
2022-08-25T07:31:13.394Z,333.00
2022-08-25T07:32:13.368Z,334.00
2022-08-25T07:33:13.577Z,319.00
2022-08-25T07:34:13.409Z,328.00
2022-08-25T07:35:13.449Z,323.00
2022-08-25T07:36:13.429Z,334.00
2022-08-25T07:37:23.801Z,336.00
2022-08-25T07:38:19.649Z,339.00
2022-08-25T07:39:13.497Z,341.00
2022-08-25T07:40:13.642Z,341.00
2022-08-25T07:41:13.545Z,338.00
2022-08-25T07:42:13.573Z,340.00
2022-08-25T07:43:13.578Z,343.00
2022-08-25T07:44:13.595Z,345.00
2022-08-25T07:45:13.587Z,346.00
2022-08-25T07:46:13.694Z,348.00
2022-08-25T07:47:13.586Z,347.00
2022-08-25T07:48:13.606Z,338.00
2022-08-25T07:49:16.688Z,335.00
2022-08-25T07:50:13.631Z,327.00
2022-08-25T07:51:13.627Z,324.00
2022-08-25T07:52:13.644Z,337.00
2022-08-25T07:53:13.660Z,341.00
2022-08-25T07:54:13.660Z,344.00
2022-08-25T07:55:13.690Z,347.00
2022-08-25T07:56:13.709Z,350.00
2022-08-25T07:57:13.690Z,350.00
2022-08-25T07:58:13.733Z,351.00
2022-08-25T07:59:13.707Z,351.00
2022-08-25T08:00:13.718Z,351.00
2022-08-25T08:01:13.726Z,352.00
2022-08-25T08:02:18.082Z,355.00
2022-08-25T08:03:35.277Z,355.00
2022-08-25T08:04:13.864Z,358.00
2022-08-25T08:05:13.735Z,359.00
2022-08-25T08:06:13.753Z,361.00
2022-08-25T08:07:13.778Z,365.00
2022-08-25T08:08:13.779Z,367.00
2022-08-25T08:09:13.904Z,370.00
2022-08-25T08:11:13.904Z,361.00
2022-08-25T08:12:13.869Z,370.00
2022-08-25T08:13:17.901Z,373.00
2022-08-25T08:14:13.906Z,375.00
2022-08-25T08:15:13.885Z,377.00
2022-08-25T08:16:13.925Z,380.00
2022-08-25T08:17:13.914Z,381.00
2022-08-25T08:18:13.934Z,382.00
2022-08-25T08:19:13.969Z,384.00
2022-08-25T08:20:13.943Z,385.00
2022-08-25T08:21:13.957Z,387.00
2022-08-25T08:22:13.971Z,387.00
2022-08-25T08:23:13.996Z,387.00
2022-08-25T08:24:25.059Z,389.00
2022-08-25T08:25:18.617Z,393.00
2022-08-25T08:26:14.077Z,395.00
2022-08-25T08:27:14.106Z,393.00
2022-08-25T08:28:14.117Z,396.00
2022-08-25T08:29:14.127Z,398.00
2022-08-25T08:30:14.109Z,399.00
2022-08-25T08:31:14.179Z,403.00
2022-08-25T08:32:14.130Z,403.00
2022-08-25T08:33:14.306Z,407.00
2022-08-25T08:34:14.164Z,409.00
2022-08-25T08:35:14.140Z,410.00
2022-08-25T08:36:14.160Z,411.00
2022-08-25T08:37:14.177Z,404.00
2022-08-25T08:38:19.595Z,408.00
2022-08-25T08:39:14.206Z,414.00
2022-08-25T08:40:14.468Z,413.00
2022-08-25T08:41:14.289Z,405.00
2022-08-25T08:42:16.820Z,411.00
2022-08-25T08:43:18.442Z,416.00
2022-08-25T08:44:14.245Z,426.00
2022-08-25T08:45:14.270Z,431.00
2022-08-25T08:46:14.320Z,435.00
2022-08-25T08:47:14.284Z,439.00
2022-08-25T08:48:14.293Z,441.00
2022-08-25T08:49:14.320Z,443.00
2022-08-25T08:50:16.635Z,446.00
2022-08-25T08:51:14.583Z,437.00
2022-08-25T08:52:14.357Z,444.00
2022-08-25T08:53:15.034Z,452.00
2022-08-25T08:54:15.392Z,454.00
2022-08-25T08:55:14.393Z,455.00
2022-08-25T08:56:14.407Z,454.00
2022-08-25T08:57:14.390Z,457.00
2022-08-25T08:58:14.424Z,464.00
2022-08-25T08:59:14.453Z,468.00
2022-08-25T09:00:14.456Z,474.00
2022-08-25T09:01:14.578Z,478.00
2022-08-25T09:02:14.511Z,482.00
2022-08-25T09:03:14.545Z,488.00
2022-08-25T09:04:14.567Z,497.00
2022-08-25T09:05:14.549Z,503.00
2022-08-25T09:06:14.585Z,512.00
2022-08-25T09:07:14.577Z,519.00
2022-08-25T09:08:14.554Z,527.00
2022-08-25T09:09:14.580Z,536.00
2022-08-25T09:10:14.602Z,543.00
2022-08-25T09:11:16.346Z,548.00
2022-08-25T09:12:14.599Z,554.00
2022-08-25T09:13:15.435Z,560.00
2022-08-25T09:14:14.625Z,569.00
2022-08-25T09:15:14.599Z,577.00
2022-08-25T09:16:23.190Z,583.00
2022-08-25T09:17:14.628Z,589.00
2022-08-25T09:18:14.639Z,596.00
2022-08-25T09:19:23.498Z,603.00
2022-08-25T09:20:18.986Z,611.00
2022-08-25T09:21:14.655Z,616.00
2022-08-25T09:22:33.620Z,616.00
2022-08-25T09:23:14.691Z,624.00
2022-08-25T09:24:15.206Z,619.00
2022-08-25T09:25:22.146Z,625.00
2022-08-25T09:26:14.738Z,651.00
2022-08-25T09:27:14.755Z,660.00
2022-08-25T09:28:14.750Z,667.00
2022-08-25T09:29:16.534Z,668.00
2022-08-25T09:30:14.849Z,683.00
2022-08-25T09:31:14.839Z,698.00
2022-08-25T09:32:15.145Z,694.00
2022-08-25T09:33:14.844Z,695.00
2022-08-25T09:34:14.823Z,693.00
2022-08-25T09:35:14.847Z,702.00
2022-08-25T09:36:14.860Z,413.00
2022-08-25T09:37:14.877Z,548.00
2022-08-25T09:38:14.902Z,713.00
2022-08-25T09:39:14.917Z,743.00
2022-08-25T09:40:15.071Z,691.00
2022-08-25T09:41:14.941Z,749.00
2022-08-25T09:42:14.955Z,751.00
2022-08-25T09:43:14.966Z,752.00
2022-08-25T09:44:14.995Z,752.00
2022-08-25T09:45:15.016Z,753.00
2022-08-25T09:46:15.067Z,748.00
2022-08-25T09:47:15.033Z,759.00
2022-08-25T09:48:15.037Z,771.00
2022-08-25T09:49:15.071Z,754.00
2022-08-25T09:50:18.345Z,686.00
2022-08-25T09:51:15.101Z,745.00
2022-08-25T09:52:15.129Z,730.00
2022-08-25T09:53:18.646Z,753.00
2022-08-25T09:54:15.125Z,797.00
2022-08-25T09:55:15.102Z,809.00
2022-08-25T09:56:15.113Z,763.00
2022-08-25T09:57:15.126Z,711.00
2022-08-25T09:58:15.114Z,593.00
2022-08-25T09:59:15.504Z,550.00
2022-08-25T10:00:15.186Z,705.00
2022-08-25T10:01:15.240Z,782.00
2022-08-25T10:02:15.851Z,759.00
2022-08-25T10:03:15.452Z,708.00
2022-08-25T10:04:20.227Z,790.00
2022-08-25T10:05:15.354Z,799.00
2022-08-25T10:06:15.291Z,804.00
2022-08-25T10:07:15.320Z,612.00
2022-08-25T10:08:16.385Z,535.00
2022-08-25T10:09:15.340Z,450.00
2022-08-25T10:10:15.347Z,437.00
2022-08-25T10:11:15.416Z,437.00
2022-08-25T10:12:15.339Z,432.00
2022-08-25T10:13:15.350Z,421.00
2022-08-25T10:14:15.376Z,430.00
2022-08-25T10:15:15.361Z,452.00
2022-08-25T10:16:20.373Z,462.00
2022-08-25T10:17:15.409Z,579.00
2022-08-25T10:18:15.431Z,645.00
2022-08-25T10:19:15.448Z,554.00
2022-08-25T10:20:15.471Z,580.00
2022-08-25T10:21:15.512Z,484.00
2022-08-25T10:22:15.510Z,527.00
2022-08-25T10:23:15.529Z,501.00
2022-08-25T10:24:15.586Z,480.00
2022-08-25T10:25:15.558Z,483.00
2022-08-25T10:26:15.584Z,531.00
2022-08-25T10:27:15.606Z,484.00
2022-08-25T10:28:15.630Z,510.00
2022-08-25T10:29:15.651Z,519.00
2022-08-25T10:30:15.670Z,488.00
2022-08-25T10:31:15.733Z,469.00
2022-08-25T10:32:15.680Z,463.00
2022-08-25T10:33:15.678Z,456.00
2022-08-25T10:34:15.718Z,451.00
2022-08-25T10:35:15.698Z,450.00
2022-08-25T10:36:15.713Z,450.00
2022-08-25T10:37:15.714Z,451.00
2022-08-25T10:38:21.726Z,454.00
2022-08-25T10:39:34.120Z,460.00
2022-08-25T10:40:16.743Z,470.00
2022-08-25T10:41:15.766Z,480.00
2022-08-25T10:42:15.765Z,491.00
2022-08-25T10:43:15.798Z,504.00
2022-08-25T10:44:15.809Z,514.00
2022-08-25T10:45:21.752Z,524.00
2022-08-25T10:46:15.918Z,533.00
2022-08-25T10:47:15.838Z,545.00
2022-08-25T10:48:15.872Z,565.00
2022-08-25T10:49:15.850Z,588.00
2022-08-25T10:50:15.881Z,598.00
2022-08-25T10:51:20.441Z,604.00
2022-08-25T10:52:15.904Z,617.00
2022-08-25T10:53:15.941Z,653.00
2022-08-25T10:54:15.922Z,673.00
2022-08-25T10:55:15.950Z,675.00
2022-08-25T10:56:15.956Z,691.00
2022-08-25T10:57:15.972Z,708.00
2022-08-25T10:58:16.006Z,722.00
2022-08-25T10:59:16.033Z,758.00
2022-08-25T11:00:16.001Z,832.00
2022-08-25T11:01:16.101Z,875.00
2022-08-25T11:02:16.058Z,915.00
2022-08-25T11:03:16.053Z,985.00
2022-08-25T11:04:16.044Z,1075.00
2022-08-25T11:05:16.131Z,1128.00
2022-08-25T11:06:16.097Z,1149.00
2022-08-25T11:07:16.114Z,1160.00
2022-08-25T11:08:16.102Z,1167.00
2022-08-25T11:09:16.142Z,1177.00
2022-08-25T11:10:16.162Z,1190.00
2022-08-25T11:11:16.188Z,1217.00
2022-08-25T11:12:16.199Z,1231.00
2022-08-25T11:13:16.200Z,1234.00
2022-08-25T11:14:16.230Z,1237.00
2022-08-25T11:15:16.254Z,1239.00
2022-08-25T11:16:18.825Z,1247.00
2022-08-25T11:17:16.895Z,1251.00
2022-08-25T11:18:16.268Z,1250.00
2022-08-25T11:19:16.283Z,1251.00
2022-08-25T11:20:19.118Z,1252.00
2022-08-25T11:21:16.271Z,1238.00
2022-08-25T11:22:16.274Z,1239.00
2022-08-25T11:23:16.297Z,1236.00
2022-08-25T11:24:16.268Z,1235.00
2022-08-25T11:25:16.272Z,1239.00
2022-08-25T11:26:16.329Z,1237.00
2022-08-25T11:27:16.332Z,1229.00
2022-08-25T11:28:16.351Z,1230.00
2022-08-25T11:29:16.422Z,1227.00
2022-08-25T11:30:16.405Z,1228.00
2022-08-25T11:31:16.501Z,1229.00
2022-08-25T11:32:16.443Z,1133.00
2022-08-25T11:33:16.446Z,822.00
2022-08-25T11:34:19.393Z,1242.00
2022-08-25T11:35:16.443Z,867.00
2022-08-25T11:36:16.453Z,772.00
2022-08-25T11:37:16.478Z,943.00
2022-08-25T11:38:16.476Z,1231.00
2022-08-25T11:39:16.509Z,1250.00
2022-08-25T11:40:16.637Z,1228.00
2022-08-25T11:41:16.567Z,1231.00
2022-08-25T11:42:16.554Z,1232.00
2022-08-25T11:43:16.555Z,1071.00
2022-08-25T11:44:16.569Z,857.00
2022-08-25T11:45:16.574Z,882.00
2022-08-25T11:46:16.686Z,1235.00
2022-08-25T11:47:21.445Z,842.00
2022-08-25T11:48:16.620Z,850.00
2022-08-25T11:49:16.655Z,996.00
2022-08-25T11:50:16.663Z,789.00
2022-08-25T11:51:16.679Z,748.00
2022-08-25T11:52:16.712Z,720.00
2022-08-25T11:53:16.734Z,717.00
2022-08-25T11:54:16.774Z,707.00
2022-08-25T11:55:16.756Z,720.00
2022-08-25T11:56:16.781Z,743.00
2022-08-25T11:57:16.776Z,770.00
2022-08-25T11:58:16.890Z,803.00
2022-08-25T11:59:16.774Z,859.00
2022-08-25T12:00:16.760Z,1311.00
2022-08-25T12:01:16.797Z,1312.00
2022-08-25T12:02:16.815Z,1275.00
2022-08-25T12:03:16.847Z,1268.00
2022-08-25T12:04:16.894Z,1209.00
2022-08-25T12:05:17.038Z,1142.00
2022-08-25T12:06:16.840Z,981.00
2022-08-25T12:07:16.865Z,1064.00
2022-08-25T12:08:16.854Z,1049.00
2022-08-25T12:09:16.885Z,1011.00
2022-08-25T12:10:16.903Z,1035.00
2022-08-25T12:11:16.927Z,1026.00
2022-08-25T12:12:16.935Z,1035.00
2022-08-25T12:13:16.957Z,905.00
2022-08-25T12:14:16.988Z,886.00
2022-08-25T12:15:16.988Z,963.00
2022-08-25T12:16:17.016Z,683.00
2022-08-25T12:17:17.017Z,728.00
2022-08-25T12:18:17.025Z,1045.00
2022-08-25T12:19:17.042Z,1118.00
2022-08-25T12:20:17.024Z,810.00
2022-08-25T12:21:17.037Z,821.00
2022-08-25T12:22:17.065Z,845.00
2022-08-25T12:23:17.087Z,817.00
2022-08-25T12:24:17.124Z,787.00
2022-08-25T12:25:17.169Z,786.00
2022-08-25T12:26:17.173Z,772.00
2022-08-25T12:27:17.199Z,805.00
2022-08-25T12:28:17.228Z,1127.00
2022-08-25T12:29:17.228Z,1133.00
2022-08-25T12:30:20.718Z,1110.00
2022-08-25T12:31:17.394Z,1085.00
2022-08-25T12:32:17.243Z,1065.00
2022-08-25T12:33:17.278Z,208.00
2022-08-25T12:34:17.315Z,208.00
2022-08-25T12:35:17.431Z,209.00
2022-08-25T12:36:17.306Z,207.00
2022-08-25T12:37:17.320Z,174.00
2022-08-25T12:38:17.338Z,191.00
2022-08-25T12:39:17.382Z,152.00
2022-08-25T12:40:17.462Z,155.00
2022-08-25T12:41:17.387Z,160.00
2022-08-25T12:42:19.045Z,148.00
2022-08-25T12:43:19.670Z,146.00
2022-08-25T12:44:17.413Z,144.00
2022-08-25T12:45:17.406Z,141.00
2022-08-25T12:46:17.453Z,143.00
2022-08-25T12:47:17.419Z,149.00